ADDS TAF Board INFO
 
 

IDs: Format: Expanded Condensed

KATL - Atlanta/Hartsfield-J, GA, US

Issued at 1356 UTC 21 Aug 2014
Time1552Z21/17Z21/18Z21/19Z21/20Z21/21Z21/22Z21/23Z22/00Z22/01Z22/02Z22/03Z22/04Z22/05Z
TypeOBSPRVLPRVLPRVLPRVLPRVLPRVLPRVLPRVLPRVLPRVLPRVLPRVLPRVL
Vis10>6>6>6>6>6>6>6>6>6>6>6>6>6
Cig----------------------------
CoverSCTSCTSCTSCTSCTSCTSCTSCTSCTSCTSKCSKCSKCSKC
FltCat--VFRVFRVFRVFRVFRVFRVFRVFRVFRVFRVFRVFRVFR
Wx----------------------------
WDirVRB300300300300300300300300300310310310310
WSpd48888888884444
WGst----------------------------
R08/26
XWndVRB4444444443333
HWndVRB-7-7-7-7-7-7-7-7-7-3-3-3-3
R09/27
XWndVRB4444444443333
HWndVRB-7-7-7-7-7-7-7-7-7-3-3-3-3
R10/28
XWndVRB4444444443333
HWndVRB-7-7-7-7-7-7-7-7-7-3-3-3-3
Raw TAF
KATL 211356Z 2114/2218 30008KT P6SM SCT045
  FM220200 31004KT P6SM SKC
  FM221500 32007KT P6SM SCT040


Raw METAR
KATL 211552Z VRB04KT 10SM FEW160 SCT250 29/22 A3017 RMK AO2 SLP207 T02940217

TAF Board Legend

Hazard Green Yellow Red Magenta
Visibility (sm) >5 >2.99 >0.99 <=0.99
Ceiling (100 ft) >30 >9.99 >4.99 <=4.99
Wind Speed (kt) <10 <20 <30 >=30
Wind Gust (kt) <10 <20 <30 >=30
Weather No Wx Reported Light precipitation Moderate precipitation Heavy precipitation
Flight Category VFR MVFR IFR LIFR

Page loaded:  16:02 UTC  |   09:02 AM Pacific  |   10:02 AM Mountain  |   11:02 AM Central  |   12:02 PM Eastern

 

ADVISORIES

FORECASTS

FORECASTS

OBSERVATIONS

USER TOOLS

ABOUT US